Charter Quote
Worldwide +1-877-727-2538 Call
Select Language Lang
SAFETY RELIABILITY EXPERIENCE

Le Cannet Airport (LFMC) - Jet Charter Services

AIRPORT INFORMATION
ICAOLFMC
LOCATIONLe Luc, France
FACILITY TYPEAIRPORT
Runway Length (ft) Width (ft) Surface Type Elevation (ft)
31/13 4593 98 ASP 264.81967
27/09 2625 98 ASP 264.81967

At Paramount Business Jets you can hire chartered private jets to and from Le Cannet Airport with as little as 4 hours of notice. All flights booked via Paramount Business Jets are operated by certified direct air carriers that meet and exceed the FAA part 135 and 121 protocol or a foreign equivalent safety authority. Furthermore, Paramount Business Jets subscribes to ARGUS for their third party safety checks of operators, aircraft, and crews prior each and every flight to and from Le Cannet Airport and worldwide.

  • Quote a trip using Le Cannet Airport or call us 24/7 - 365 days a year at +1-877-727-2538.
Questions? Call +1-877-727-2538

METAR Weather Data at Le Cannet Airport, LFMC

STATIONLFMC
OBSERVEDWed Jan 23, 23:00 UTC
NOWWed Jan 23, 23:16 UTC
AGE16 min ago
WINDSSW at 3 mph
VISIBILITY16 miles
METARLFMC 232300Z AUTO 21003KT 170V250 9999 ////// 02/M04 Q0991

Call us on +1-877-727-2538 (24 Hours) to Hire a Private Jet or Get a Quick Quote.

Find Airports Near any Location

Processing
...